sensor_id;sensor_type;location;lat;lon;timestamp;temperature;humidity
24522;DHT22;12680;57.804;12.190;2022-10-16T00:01:38;12.50;99.90
24522;DHT22;12680;57.804;12.190;2022-10-16T00:04:06;13.50;99.90
24522;DHT22;12680;57.804;12.190;2022-10-16T00:06:33;13.50;99.90
24522;DHT22;12680;57.804;12.190;2022-10-16T00:09:04;13.50;99.90
24522;DHT22;12680;57.804;12.190;2022-10-16T00:11:34;13.60;99.90
24522;DHT22;12680;57.804;12.190;2022-10-16T00:14:05;13.60;99.90
24522;DHT22;12680;57.804;12.190;2022-10-16T00:16:33;13.60;99.90
24522;DHT22;12680;57.804;12.190;2022-10-16T00:19:01;13.60;99.90
24522;DHT22;12680;57.804;12.190;2022-10-16T00:21:30;13.50;99.90
24522;DHT22;12680;57.804;12.190;2022-10-16T00:24:00;13.50;99.90
24522;DHT22;12680;57.804;12.190;2022-10-16T00:26:29;13.50;99.90
24522;DHT22;12680;57.804;12.190;2022-10-16T00:28:57;13.40;99.90
24522;DHT22;12680;57.804;12.190;2022-10-16T00:31:28;13.40;99.90
24522;DHT22;12680;57.804;12.190;2022-10-16T00:33:55;13.30;99.90
24522;DHT22;12680;57.804;12.190;2022-10-16T00:36:24;13.20;99.90
24522;DHT22;12680;57.804;12.190;2022-10-16T00:38:58;13.10;99.90
24522;DHT22;12680;57.804;12.190;2022-10-16T00:41:32;13.10;99.90
24522;DHT22;12680;57.804;12.190;2022-10-16T00:44:40;13.00;99.90
24522;DHT22;12680;57.804;12.190;2022-10-16T00:47:00;12.90;99.90
24522;DHT22;12680;57.804;12.190;2022-10-16T00:49:27;12.90;99.90
24522;DHT22;12680;57.804;12.190;2022-10-16T00:51:58;12.90;99.90
24522;DHT22;12680;57.804;12.190;2022-10-16T00:54:29;12.90;99.90
24522;DHT22;12680;57.804;12.190;2022-10-16T00:57:00;12.80;99.90
24522;DHT22;12680;57.804;12.190;2022-10-16T00:59:31;12.70;99.90
24522;DHT22;12680;57.804;12.190;2022-10-16T01:01:59;12.60;99.90
24522;DHT22;12680;57.804;12.190;2022-10-16T01:04:40;12.60;99.90
24522;DHT22;12680;57.804;12.190;2022-10-16T01:10:17;12.40;99.90
24522;DHT22;12680;57.804;12.190;2022-10-16T01:13:09;12.40;99.90
24522;DHT22;12680;57.804;12.190;2022-10-16T01:18:39;12.30;99.90
24522;DHT22;12680;57.804;12.190;2022-10-16T01:21:19;12.10;99.90
24522;DHT22;12680;57.804;12.190;2022-10-16T01:25:02;12.10;99.90
24522;DHT22;12680;57.804;12.190;2022-10-16T01:27:06;12.00;99.90
24522;DHT22;12680;57.804;12.190;2022-10-16T01:29:42;12.00;99.90
24522;DHT22;12680;57.804;12.190;2022-10-16T01:34:58;11.90;99.90
24522;DHT22;12680;57.804;12.190;2022-10-16T01:37:36;11.80;99.90
24522;DHT22;12680;57.804;12.190;2022-10-16T01:40:11;11.80;99.90
24522;DHT22;12680;57.804;12.190;2022-10-16T01:42:45;11.70;99.90
24522;DHT22;12680;57.804;12.190;2022-10-16T01:45:15;11.70;99.90
24522;DHT22;12680;57.804;12.190;2022-10-16T01:47:46;11.70;99.90
24522;DHT22;12680;57.804;12.190;2022-10-16T01:50:18;11.60;99.90
24522;DHT22;12680;57.804;12.190;2022-10-16T01:52:51;11.60;99.90
24522;DHT22;12680;57.804;12.190;2022-10-16T01:55:24;11.60;99.90
24522;DHT22;12680;57.804;12.190;2022-10-16T01:57:54;11.50;99.90
24522;DHT22;12680;57.804;12.190;2022-10-16T02:00:22;11.50;99.90
24522;DHT22;12680;57.804;12.190;2022-10-16T02:02:53;11.50;99.90
24522;DHT22;12680;57.804;12.190;2022-10-16T02:05:40;11.40;99.90
24522;DHT22;12680;57.804;12.190;2022-10-16T02:08:08;11.40;99.90
24522;DHT22;12680;57.804;12.190;2022-10-16T02:10:36;11.40;99.90
24522;DHT22;12680;57.804;12.190;2022-10-16T02:13:08;11.30;99.90
24522;DHT22;12680;57.804;12.190;2022-10-16T02:15:36;11.30;99.90
24522;DHT22;12680;57.804;12.190;2022-10-16T02:18:05;11.30;99.90
24522;DHT22;12680;57.804;12.190;2022-10-16T02:20:48;11.30;99.90
24522;DHT22;12680;57.804;12.190;2022-10-16T02:23:28;11.20;99.90
24522;DHT22;12680;57.804;12.190;2022-10-16T02:25:59;11.20;99.90
24522;DHT22;12680;57.804;12.190;2022-10-16T02:28:52;11.20;99.90
24522;DHT22;12680;57.804;12.190;2022-10-16T02:31:31;11.20;99.90
24522;DHT22;12680;57.804;12.190;2022-10-16T02:34:03;11.20;99.90
24522;DHT22;12680;57.804;12.190;2022-10-16T02:36:32;11.10;99.90
24522;DHT22;12680;57.804;12.190;2022-10-16T02:39:01;11.10;99.90
24522;DHT22;12680;57.804;12.190;2022-10-16T02:41:30;11.10;99.90
24522;DHT22;12680;57.804;12.190;2022-10-16T02:44:04;11.10;99.90
24522;DHT22;12680;57.804;12.190;2022-10-16T02:46:32;11.10;99.90
24522;DHT22;12680;57.804;12.190;2022-10-16T02:49:03;11.10;99.90
24522;DHT22;12680;57.804;12.190;2022-10-16T02:51:31;11.00;99.90
24522;DHT22;12680;57.804;12.190;2022-10-16T02:53:58;11.10;99.90
24522;DHT22;12680;57.804;12.190;2022-10-16T02:56:25;11.00;99.90
24522;DHT22;12680;57.804;12.190;2022-10-16T02:58:53;11.00;99.90
24522;DHT22;12680;57.804;12.190;2022-10-16T03:01:25;11.00;99.90
24522;DHT22;12680;57.804;12.190;2022-10-16T03:03:56;11.00;99.90
24522;DHT22;12680;57.804;12.190;2022-10-16T03:06:29;11.00;99.90
24522;DHT22;12680;57.804;12.190;2022-10-16T03:08:57;11.00;99.90
24522;DHT22;12680;57.804;12.190;2022-10-16T03:11:24;11.00;99.90
24522;DHT22;12680;57.804;12.190;2022-10-16T03:13:55;11.00;99.90
24522;DHT22;12680;57.804;12.190;2022-10-16T03:16:28;11.00;99.90
24522;DHT22;12680;57.804;12.190;2022-10-16T03:19:03;11.10;99.90
24522;DHT22;12680;57.804;12.190;2022-10-16T03:21:30;11.10;99.90
24522;DHT22;12680;57.804;12.190;2022-10-16T03:24:00;11.10;99.90
24522;DHT22;12680;57.804;12.190;2022-10-16T03:26:27;11.10;99.90
24522;DHT22;12680;57.804;12.190;2022-10-16T03:28:58;11.10;99.90
24522;DHT22;12680;57.804;12.190;2022-10-16T03:31:30;11.10;99.90
24522;DHT22;12680;57.804;12.190;2022-10-16T03:33:57;10.10;99.90
24522;DHT22;12680;57.804;12.190;2022-10-16T03:36:25;11.10;99.90
24522;DHT22;12680;57.804;12.190;2022-10-16T03:38:53;11.10;99.90
24522;DHT22;12680;57.804;12.190;2022-10-16T03:41:21;11.10;99.90
24522;DHT22;12680;57.804;12.190;2022-10-16T03:43:48;11.10;99.90
24522;DHT22;12680;57.804;12.190;2022-10-16T03:46:20;11.10;99.90
24522;DHT22;12680;57.804;12.190;2022-10-16T03:48:47;11.10;99.90
24522;DHT22;12680;57.804;12.190;2022-10-16T03:51:15;11.10;99.90
24522;DHT22;12680;57.804;12.190;2022-10-16T03:53:46;11.00;99.90
24522;DHT22;12680;57.804;12.190;2022-10-16T03:56:17;10.90;99.90
24522;DHT22;12680;57.804;12.190;2022-10-16T03:58:44;10.90;99.90
24522;DHT22;12680;57.804;12.190;2022-10-16T04:01:15;10.80;99.90
24522;DHT22;12680;57.804;12.190;2022-10-16T04:03:42;10.70;99.90
24522;DHT22;12680;57.804;12.190;2022-10-16T04:06:09;10.70;99.90
24522;DHT22;12680;57.804;12.190;2022-10-16T04:08:36;10.60;99.90
24522;DHT22;12680;57.804;12.190;2022-10-16T04:11:05;10.50;99.90
24522;DHT22;12680;57.804;12.190;2022-10-16T04:13:33;10.50;99.90
24522;DHT22;12680;57.804;12.190;2022-10-16T04:16:00;10.40;99.90
24522;DHT22;12680;57.804;12.190;2022-10-16T04:18:27;10.40;99.90
24522;DHT22;12680;57.804;12.190;2022-10-16T04:21:03;10.30;99.90
24522;DHT22;12680;57.804;12.190;2022-10-16T04:23:33;10.30;99.90
24522;DHT22;12680;57.804;12.190;2022-10-16T04:26:01;10.30;99.90
24522;DHT22;12680;57.804;12.190;2022-10-16T04:28:28;10.20;99.90
24522;DHT22;12680;57.804;12.190;2022-10-16T04:30:58;10.20;99.90
24522;DHT22;12680;57.804;12.190;2022-10-16T04:33:25;10.20;99.90
24522;DHT22;12680;57.804;12.190;2022-10-16T04:35:59;10.20;99.90
24522;DHT22;12680;57.804;12.190;2022-10-16T04:38:27;10.10;99.90
24522;DHT22;12680;57.804;12.190;2022-10-16T04:40:58;10.10;99.90
24522;DHT22;12680;57.804;12.190;2022-10-16T04:43:26;10.10;99.90
24522;DHT22;12680;57.804;12.190;2022-10-16T04:45:56;10.00;99.90
24522;DHT22;12680;57.804;12.190;2022-10-16T04:48:24;10.00;99.90
24522;DHT22;12680;57.804;12.190;2022-10-16T04:50:51;10.00;99.90
24522;DHT22;12680;57.804;12.190;2022-10-16T04:53:21;10.00;99.90
24522;DHT22;12680;57.804;12.190;2022-10-16T04:55:49;10.00;99.90
24522;DHT22;12680;57.804;12.190;2022-10-16T04:58:17;10.00;99.90
24522;DHT22;12680;57.804;12.190;2022-10-16T05:00:45;9.90;99.90
24522;DHT22;12680;57.804;12.190;2022-10-16T05:03:21;9.90;99.90
24522;DHT22;12680;57.804;12.190;2022-10-16T05:05:48;9.90;99.90
24522;DHT22;12680;57.804;12.190;2022-10-16T05:08:19;9.90;99.90
24522;DHT22;12680;57.804;12.190;2022-10-16T05:10:49;9.90;99.90
24522;DHT22;12680;57.804;12.190;2022-10-16T05:13:16;9.90;99.90
24522;DHT22;12680;57.804;12.190;2022-10-16T05:15:47;9.90;99.90
24522;DHT22;12680;57.804;12.190;2022-10-16T05:18:15;9.80;99.90
24522;DHT22;12680;57.804;12.190;2022-10-16T05:20:43;9.80;99.90
24522;DHT22;12680;57.804;12.190;2022-10-16T05:23:14;9.70;99.90
24522;DHT22;12680;57.804;12.190;2022-10-16T05:25:41;9.80;99.90
24522;DHT22;12680;57.804;12.190;2022-10-16T05:28:08;9.80;99.90
24522;DHT22;12680;57.804;12.190;2022-10-16T05:30:39;9.90;99.90
24522;DHT22;12680;57.804;12.190;2022-10-16T05:33:06;9.20;99.90
24522;DHT22;12680;57.804;12.190;2022-10-16T05:35:34;10.10;99.90
24522;DHT22;12680;57.804;12.190;2022-10-16T05:38:04;10.10;99.90
24522;DHT22;12680;57.804;12.190;2022-10-16T05:40:32;10.10;99.90
24522;DHT22;12680;57.804;12.190;2022-10-16T05:43:00;10.20;99.90
24522;DHT22;12680;57.804;12.190;2022-10-16T05:45:30;10.20;99.90
24522;DHT22;12680;57.804;12.190;2022-10-16T05:47:57;10.30;99.90
24522;DHT22;12680;57.804;12.190;2022-10-16T05:50:25;10.30;99.90
24522;DHT22;12680;57.804;12.190;2022-10-16T05:52:52;10.30;99.90
24522;DHT22;12680;57.804;12.190;2022-10-16T05:55:26;10.40;99.90
24522;DHT22;12680;57.804;12.190;2022-10-16T05:57:55;10.50;99.90
24522;DHT22;12680;57.804;12.190;2022-10-16T06:00:23;10.50;99.90
24522;DHT22;12680;57.804;12.190;2022-10-16T06:02:53;10.70;99.90
24522;DHT22;12680;57.804;12.190;2022-10-16T06:05:21;10.80;99.90
24522;DHT22;12680;57.804;12.190;2022-10-16T06:07:51;10.90;99.90
24522;DHT22;12680;57.804;12.190;2022-10-16T06:10:18;11.00;99.90
24522;DHT22;12680;57.804;12.190;2022-10-16T06:12:46;11.10;99.90
24522;DHT22;12680;57.804;12.190;2022-10-16T06:15:13;11.20;99.90
24522;DHT22;12680;57.804;12.190;2022-10-16T06:17:45;11.30;99.90
24522;DHT22;12680;57.804;12.190;2022-10-16T06:20:12;11.30;99.90
24522;DHT22;12680;57.804;12.190;2022-10-16T06:22:40;11.40;99.90
24522;DHT22;12680;57.804;12.190;2022-10-16T06:25:10;11.50;99.90
24522;DHT22;12680;57.804;12.190;2022-10-16T06:27:40;11.60;99.90
24522;DHT22;12680;57.804;12.190;2022-10-16T06:30:11;11.60;99.90
24522;DHT22;12680;57.804;12.190;2022-10-16T06:32:39;11.70;99.90
24522;DHT22;12680;57.804;12.190;2022-10-16T06:35:06;11.80;99.90
24522;DHT22;12680;57.804;12.190;2022-10-16T06:37:34;11.90;99.90
24522;DHT22;12680;57.804;12.190;2022-10-16T06:40:01;12.00;99.90
24522;DHT22;12680;57.804;12.190;2022-10-16T06:42:31;12.00;99.90
24522;DHT22;12680;57.804;12.190;2022-10-16T06:44:58;12.10;99.90
24522;DHT22;12680;57.804;12.190;2022-10-16T06:47:25;12.20;99.90
24522;DHT22;12680;57.804;12.190;2022-10-16T06:49:52;12.20;99.90
24522;DHT22;12680;57.804;12.190;2022-10-16T06:52:20;12.30;99.90
24522;DHT22;12680;57.804;12.190;2022-10-16T06:54:47;12.40;99.90
24522;DHT22;12680;57.804;12.190;2022-10-16T06:57:18;12.40;99.90
24522;DHT22;12680;57.804;12.190;2022-10-16T06:59:46;12.50;99.90
24522;DHT22;12680;57.804;12.190;2022-10-16T07:02:16;12.50;99.90
24522;DHT22;12680;57.804;12.190;2022-10-16T07:04:44;12.60;99.90
24522;DHT22;12680;57.804;12.190;2022-10-16T07:07:13;12.70;99.90
24522;DHT22;12680;57.804;12.190;2022-10-16T07:09:40;12.80;99.90
24522;DHT22;12680;57.804;12.190;2022-10-16T07:12:07;12.80;99.90
24522;DHT22;12680;57.804;12.190;2022-10-16T07:14:34;12.90;99.90
24522;DHT22;12680;57.804;12.190;2022-10-16T07:17:02;12.90;99.90
24522;DHT22;12680;57.804;12.190;2022-10-16T07:19:29;12.80;99.90
24522;DHT22;12680;57.804;12.190;2022-10-16T07:22:00;12.80;99.90
24522;DHT22;12680;57.804;12.190;2022-10-16T07:24:28;12.90;99.90
24522;DHT22;12680;57.804;12.190;2022-10-16T07:26:55;12.90;99.90
24522;DHT22;12680;57.804;12.190;2022-10-16T07:29:22;12.90;99.90
24522;DHT22;12680;57.804;12.190;2022-10-16T07:31:50;13.00;99.90
24522;DHT22;12680;57.804;12.190;2022-10-16T07:34:18;13.00;99.90
24522;DHT22;12680;57.804;12.190;2022-10-16T07:36:48;13.00;99.90
24522;DHT22;12680;57.804;12.190;2022-10-16T07:39:15;13.00;99.90
24522;DHT22;12680;57.804;12.190;2022-10-16T07:41:42;13.00;99.90
24522;DHT22;12680;57.804;12.190;2022-10-16T07:44:10;13.10;99.90
24522;DHT22;12680;57.804;12.190;2022-10-16T07:46:37;13.00;99.90
24522;DHT22;12680;57.804;12.190;2022-10-16T07:49:04;13.10;99.90
24522;DHT22;12680;57.804;12.190;2022-10-16T07:51:32;13.10;99.90
24522;DHT22;12680;57.804;12.190;2022-10-16T07:53:59;13.10;99.90
24522;DHT22;12680;57.804;12.190;2022-10-16T07:56:26;13.20;99.90
24522;DHT22;12680;57.804;12.190;2022-10-16T07:58:53;13.30;99.90
24522;DHT22;12680;57.804;12.190;2022-10-16T08:01:20;13.40;99.90
24522;DHT22;12680;57.804;12.190;2022-10-16T08:03:50;13.50;99.90
24522;DHT22;12680;57.804;12.190;2022-10-16T08:06:19;13.60;99.90
24522;DHT22;12680;57.804;12.190;2022-10-16T08:08:53;13.60;99.90
24522;DHT22;12680;57.804;12.190;2022-10-16T08:11:21;13.60;99.90
24522;DHT22;12680;57.804;12.190;2022-10-16T08:13:48;13.60;99.90
24522;DHT22;12680;57.804;12.190;2022-10-16T08:16:15;13.60;99.90
24522;DHT22;12680;57.804;12.190;2022-10-16T08:18:44;13.60;99.90
24522;DHT22;12680;57.804;12.190;2022-10-16T08:21:15;13.70;99.90
24522;DHT22;12680;57.804;12.190;2022-10-16T08:23:47;13.70;99.90
24522;DHT22;12680;57.804;12.190;2022-10-16T08:26:25;13.90;99.90
24522;DHT22;12680;57.804;12.190;2022-10-16T08:28:53;14.10;99.90
24522;DHT22;12680;57.804;12.190;2022-10-16T08:31:21;14.20;99.90
24522;DHT22;12680;57.804;12.190;2022-10-16T08:33:48;14.20;99.90
24522;DHT22;12680;57.804;12.190;2022-10-16T08:36:16;14.30;99.90
24522;DHT22;12680;57.804;12.190;2022-10-16T08:38:43;14.30;99.90
24522;DHT22;12680;57.804;12.190;2022-10-16T08:41:32;14.40;99.90
24522;DHT22;12680;57.804;12.190;2022-10-16T08:49:42;14.50;99.90
24522;DHT22;12680;57.804;12.190;2022-10-16T08:52:12;14.40;99.90
24522;DHT22;12680;57.804;12.190;2022-10-16T08:54:46;14.50;99.90
24522;DHT22;12680;57.804;12.190;2022-10-16T08:57:21;14.50;99.90
24522;DHT22;12680;57.804;12.190;2022-10-16T08:59:51;14.50;99.90
24522;DHT22;12680;57.804;12.190;2022-10-16T09:02:31;14.50;99.90
24522;DHT22;12680;57.804;12.190;2022-10-16T09:08:14;14.50;99.90
24522;DHT22;12680;57.804;12.190;2022-10-16T09:10:58;14.60;99.90
24522;DHT22;12680;57.804;12.190;2022-10-16T09:16:37;14.60;99.90
24522;DHT22;12680;57.804;12.190;2022-10-16T09:21:44;14.60;99.90
24522;DHT22;12680;57.804;12.190;2022-10-16T09:24:17;14.60;99.90
24522;DHT22;12680;57.804;12.190;2022-10-16T09:26:46;14.60;99.90
24522;DHT22;12680;57.804;12.190;2022-10-16T09:29:15;14.60;99.90
24522;DHT22;12680;57.804;12.190;2022-10-16T09:31:43;14.60;99.90
24522;DHT22;12680;57.804;12.190;2022-10-16T09:34:30;14.50;99.90
24522;DHT22;12680;57.804;12.190;2022-10-16T09:36:59;14.40;99.90
24522;DHT22;12680;57.804;12.190;2022-10-16T09:39:27;14.40;99.90
24522;DHT22;12680;57.804;12.190;2022-10-16T09:41:55;14.30;99.90
24522;DHT22;12680;57.804;12.190;2022-10-16T09:44:27;14.30;99.90
24522;DHT22;12680;57.804;12.190;2022-10-16T09:47:12;14.30;99.90
24522;DHT22;12680;57.804;12.190;2022-10-16T09:49:54;14.30;99.90
24522;DHT22;12680;57.804;12.190;2022-10-16T09:52:22;14.30;99.90
24522;DHT22;12680;57.804;12.190;2022-10-16T09:54:52;14.30;99.90
24522;DHT22;12680;57.804;12.190;2022-10-16T09:57:20;14.30;99.90
24522;DHT22;12680;57.804;12.190;2022-10-16T09:59:52;14.30;99.90
24522;DHT22;12680;57.804;12.190;2022-10-16T10:02:29;14.30;99.90
24522;DHT22;12680;57.804;12.190;2022-10-16T10:04:56;14.30;99.90
24522;DHT22;12680;57.804;12.190;2022-10-16T10:07:33;14.40;99.90
24522;DHT22;12680;57.804;12.190;2022-10-16T10:10:04;14.50;99.90
24522;DHT22;12680;57.804;12.190;2022-10-16T10:12:33;14.60;99.90
24522;DHT22;12680;57.804;12.190;2022-10-16T10:15:07;14.50;99.90
24522;DHT22;12680;57.804;12.190;2022-10-16T10:17:46;14.40;99.90
24522;DHT22;12680;57.804;12.190;2022-10-16T10:20:31;14.30;99.90
24522;DHT22;12680;57.804;12.190;2022-10-16T10:23:23;14.30;99.90
24522;DHT22;12680;57.804;12.190;2022-10-16T10:26:13;14.50;99.90
24522;DHT22;12680;57.804;12.190;2022-10-16T10:28:49;14.50;99.90
24522;DHT22;12680;57.804;12.190;2022-10-16T10:31:50;14.70;99.90
24522;DHT22;12680;57.804;12.190;2022-10-16T10:40:24;15.30;99.90
24522;DHT22;12680;57.804;12.190;2022-10-16T10:45:46;15.20;99.90
24522;DHT22;12680;57.804;12.190;2022-10-16T10:54:10;14.90;99.90
24522;DHT22;12680;57.804;12.190;2022-10-16T10:57:08;14.80;99.90
24522;DHT22;12680;57.804;12.190;2022-10-16T11:07:49;14.40;99.90
24522;DHT22;12680;57.804;12.190;2022-10-16T11:11:00;14.20;99.90
24522;DHT22;12680;57.804;12.190;2022-10-16T11:16:44;14.00;99.90
24522;DHT22;12680;57.804;12.190;2022-10-16T11:22:18;14.20;99.90
24522;DHT22;12680;57.804;12.190;2022-10-16T11:33:37;14.30;99.90
24522;DHT22;12680;57.804;12.190;2022-10-16T11:36:33;14.30;99.90
24522;DHT22;12680;57.804;12.190;2022-10-16T11:39:20;14.30;99.90
24522;DHT22;12680;57.804;12.190;2022-10-16T11:45:02;14.40;99.90
24522;DHT22;12680;57.804;12.190;2022-10-16T11:47:35;14.40;99.90
24522;DHT22;12680;57.804;12.190;2022-10-16T11:50:36;14.30;99.90
24522;DHT22;12680;57.804;12.190;2022-10-16T11:53:35;14.30;99.90
24522;DHT22;12680;57.804;12.190;2022-10-16T11:56:06;14.20;99.90
24522;DHT22;12680;57.804;12.190;2022-10-16T12:04:06;14.10;99.90
24522;DHT22;12680;57.804;12.190;2022-10-16T12:06:59;14.00;99.90
24522;DHT22;12680;57.804;12.190;2022-10-16T12:09:32;13.90;99.90
24522;DHT22;12680;57.804;12.190;2022-10-16T13:32:22;12.30;99.90
24522;DHT22;12680;57.804;12.190;2022-10-16T13:34:50;12.30;99.90
24522;DHT22;12680;57.804;12.190;2022-10-16T13:37:19;12.30;99.90
24522;DHT22;12680;57.804;12.190;2022-10-16T13:39:47;12.30;99.90
24522;DHT22;12680;57.804;12.190;2022-10-16T13:42:22;12.40;99.90
24522;DHT22;12680;57.804;12.190;2022-10-16T13:44:55;12.50;99.90
24522;DHT22;12680;57.804;12.190;2022-10-16T13:47:25;12.50;99.90
24522;DHT22;12680;57.804;12.190;2022-10-16T13:50:11;12.50;99.90
24522;DHT22;12680;57.804;12.190;2022-10-16T13:52:39;12.50;99.90
24522;DHT22;12680;57.804;12.190;2022-10-16T13:55:15;12.50;99.90
24522;DHT22;12680;57.804;12.190;2022-10-16T13:57:42;12.60;99.90
24522;DHT22;12680;57.804;12.190;2022-10-16T14:00:24;12.70;99.90
24522;DHT22;12680;57.804;12.190;2022-10-16T14:03:00;12.80;99.90
24522;DHT22;12680;57.804;12.190;2022-10-16T14:05:27;12.80;99.90
24522;DHT22;12680;57.804;12.190;2022-10-16T14:07:55;12.80;99.90
24522;DHT22;12680;57.804;12.190;2022-10-16T14:10:29;12.90;99.90
24522;DHT22;12680;57.804;12.190;2022-10-16T14:13:02;12.90;99.90
24522;DHT22;12680;57.804;12.190;2022-10-16T14:15:35;13.00;99.90
24522;DHT22;12680;57.804;12.190;2022-10-16T14:18:18;12.90;99.90
24522;DHT22;12680;57.804;12.190;2022-10-16T14:20:45;12.90;99.90
24522;DHT22;12680;57.804;12.190;2022-10-16T14:25:46;12.90;99.90
24522;DHT22;12680;57.804;12.190;2022-10-16T14:28:17;12.90;99.90
24522;DHT22;12680;57.804;12.190;2022-10-16T14:33:23;13.00;99.90
24522;DHT22;12680;57.804;12.190;2022-10-16T14:36:12;13.00;99.90
24522;DHT22;12680;57.804;12.190;2022-10-16T14:38:47;13.00;99.90
24522;DHT22;12680;57.804;12.190;2022-10-16T14:41:15;13.00;99.90
24522;DHT22;12680;57.804;12.190;2022-10-16T14:43:43;13.00;99.90
24522;DHT22;12680;57.804;12.190;2022-10-16T14:46:19;13.00;99.90
24522;DHT22;12680;57.804;12.190;2022-10-16T14:49:17;13.00;99.90
24522;DHT22;12680;57.804;12.190;2022-10-16T14:51:42;13.00;99.90
24522;DHT22;12680;57.804;12.190;2022-10-16T14:54:13;13.00;99.90
24522;DHT22;12680;57.804;12.190;2022-10-16T14:56:48;13.00;99.90
24522;DHT22;12680;57.804;12.190;2022-10-16T14:59:33;12.80;99.90
24522;DHT22;12680;57.804;12.190;2022-10-16T15:02:09;12.70;99.90
24522;DHT22;12680;57.804;12.190;2022-10-16T15:04:47;12.60;99.90
24522;DHT22;12680;57.804;12.190;2022-10-16T15:07:14;12.60;99.90
24522;DHT22;12680;57.804;12.190;2022-10-16T15:09:42;12.70;99.90
24522;DHT22;12680;57.804;12.190;2022-10-16T15:12:16;12.70;99.90
24522;DHT22;12680;57.804;12.190;2022-10-16T15:14:43;12.60;99.90
24522;DHT22;12680;57.804;12.190;2022-10-16T15:17:11;12.60;99.90
24522;DHT22;12680;57.804;12.190;2022-10-16T15:19:38;12.70;99.90
24522;DHT22;12680;57.804;12.190;2022-10-16T15:22:05;12.70;99.90
24522;DHT22;12680;57.804;12.190;2022-10-16T15:24:37;12.70;99.90
24522;DHT22;12680;57.804;12.190;2022-10-16T15:27:05;12.70;99.90
24522;DHT22;12680;57.804;12.190;2022-10-16T15:29:32;12.70;99.90
24522;DHT22;12680;57.804;12.190;2022-10-16T15:31:59;12.70;99.90
24522;DHT22;12680;57.804;12.190;2022-10-16T15:34:26;12.70;99.90
24522;DHT22;12680;57.804;12.190;2022-10-16T15:36:53;12.60;99.90
24522;DHT22;12680;57.804;12.190;2022-10-16T15:39:22;12.60;99.90
24522;DHT22;12680;57.804;12.190;2022-10-16T15:41:49;12.50;99.90
24522;DHT22;12680;57.804;12.190;2022-10-16T15:44:18;12.50;99.90
24522;DHT22;12680;57.804;12.190;2022-10-16T15:46:46;12.50;99.90
24522;DHT22;12680;57.804;12.190;2022-10-16T15:49:13;12.50;99.90
24522;DHT22;12680;57.804;12.190;2022-10-16T15:51:41;12.50;99.90
24522;DHT22;12680;57.804;12.190;2022-10-16T15:54:09;12.40;99.90
24522;DHT22;12680;57.804;12.190;2022-10-16T15:56:36;12.40;99.90
24522;DHT22;12680;57.804;12.190;2022-10-16T15:59:04;12.30;99.90
24522;DHT22;12680;57.804;12.190;2022-10-16T16:01:33;12.30;99.90
24522;DHT22;12680;57.804;12.190;2022-10-16T16:04:00;12.30;99.90
24522;DHT22;12680;57.804;12.190;2022-10-16T16:06:41;12.30;99.90
24522;DHT22;12680;57.804;12.190;2022-10-16T16:09:12;12.30;99.90
24522;DHT22;12680;57.804;12.190;2022-10-16T16:11:41;12.30;99.90
24522;DHT22;12680;57.804;12.190;2022-10-16T16:14:12;12.40;99.90
24522;DHT22;12680;57.804;12.190;2022-10-16T16:16:40;12.40;99.90
24522;DHT22;12680;57.804;12.190;2022-10-16T16:19:08;12.40;99.90
24522;DHT22;12680;57.804;12.190;2022-10-16T16:21:38;12.40;99.90
24522;DHT22;12680;57.804;12.190;2022-10-16T16:24:06;12.40;99.90
24522;DHT22;12680;57.804;12.190;2022-10-16T16:26:36;12.40;99.90
24522;DHT22;12680;57.804;12.190;2022-10-16T16:29:06;12.30;99.90
24522;DHT22;12680;57.804;12.190;2022-10-16T16:31:34;12.40;99.90
24522;DHT22;12680;57.804;12.190;2022-10-16T16:34:02;12.40;99.90
24522;DHT22;12680;57.804;12.190;2022-10-16T16:36:30;12.40;99.90
24522;DHT22;12680;57.804;12.190;2022-10-16T16:38:58;12.40;99.90
24522;DHT22;12680;57.804;12.190;2022-10-16T16:41:29;12.40;99.90
24522;DHT22;12680;57.804;12.190;2022-10-16T16:44:08;12.50;99.90
24522;DHT22;12680;57.804;12.190;2022-10-16T16:46:37;12.50;99.90
24522;DHT22;12680;57.804;12.190;2022-10-16T16:49:12;12.50;99.90
24522;DHT22;12680;57.804;12.190;2022-10-16T16:51:43;12.60;99.90
24522;DHT22;12680;57.804;12.190;2022-10-16T16:54:11;12.60;99.90
24522;DHT22;12680;57.804;12.190;2022-10-16T16:56:40;12.60;99.90
24522;DHT22;12680;57.804;12.190;2022-10-16T16:59:17;12.60;99.90
24522;DHT22;12680;57.804;12.190;2022-10-16T17:01:46;12.60;99.90
24522;DHT22;12680;57.804;12.190;2022-10-16T17:04:19;12.60;99.90
24522;DHT22;12680;57.804;12.190;2022-10-16T17:06:47;12.60;99.90
24522;DHT22;12680;57.804;12.190;2022-10-16T17:09:15;12.60;99.90
24522;DHT22;12680;57.804;12.190;2022-10-16T17:11:46;12.60;99.90
24522;DHT22;12680;57.804;12.190;2022-10-16T17:14:15;12.50;99.90
24522;DHT22;12680;57.804;12.190;2022-10-16T17:16:46;12.40;99.90
24522;DHT22;12680;57.804;12.190;2022-10-16T17:19:19;12.40;99.90
24522;DHT22;12680;57.804;12.190;2022-10-16T17:21:50;12.30;99.90
24522;DHT22;12680;57.804;12.190;2022-10-16T17:50:50;10.30;99.90
24522;DHT22;12680;57.804;12.190;2022-10-16T17:53:21;10.40;99.90
24522;DHT22;12680;57.804;12.190;2022-10-16T17:55:48;10.40;99.90
24522;DHT22;12680;57.804;12.190;2022-10-16T17:58:16;10.50;99.90
24522;DHT22;12680;57.804;12.190;2022-10-16T18:00:46;10.50;99.90
24522;DHT22;12680;57.804;12.190;2022-10-16T18:03:14;10.60;99.90
24522;DHT22;12680;57.804;12.190;2022-10-16T18:05:41;10.70;99.90
24522;DHT22;12680;57.804;12.190;2022-10-16T18:08:08;10.80;99.90
24522;DHT22;12680;57.804;12.190;2022-10-16T18:10:36;10.90;99.90
24522;DHT22;12680;57.804;12.190;2022-10-16T18:13:03;11.00;99.90
24522;DHT22;12680;57.804;12.190;2022-10-16T18:15:31;11.00;99.90
24522;DHT22;12680;57.804;12.190;2022-10-16T18:17:59;11.10;99.90
24522;DHT22;12680;57.804;12.190;2022-10-16T18:20:30;11.10;99.90
24522;DHT22;12680;57.804;12.190;2022-10-16T18:22:59;11.20;99.90
24522;DHT22;12680;57.804;12.190;2022-10-16T18:25:30;11.20;99.90
24522;DHT22;12680;57.804;12.190;2022-10-16T18:27:58;11.30;99.90
24522;DHT22;12680;57.804;12.190;2022-10-16T18:30:25;11.30;99.90
24522;DHT22;12680;57.804;12.190;2022-10-16T18:32:53;11.30;99.90
24522;DHT22;12680;57.804;12.190;2022-10-16T18:35:24;11.40;99.90
24522;DHT22;12680;57.804;12.190;2022-10-16T18:37:52;11.40;99.90
24522;DHT22;12680;57.804;12.190;2022-10-16T18:40:21;11.40;99.90
24522;DHT22;12680;57.804;12.190;2022-10-16T18:42:49;11.30;99.90
24522;DHT22;12680;57.804;12.190;2022-10-16T18:45:16;11.30;99.90